Relevés horaires St-Hubert (Belgique)


Relevés horaires à St-Hubert - Samedi 25 Avr. 2026
Heure UTC1 Température [°C] Vent [km/h] Hum. [%] Pres.4 [hPa] Visi. [Km] Nébu. [octa] Préc.5 [mm] Cond.
2m. Res. Ros. Dir.2 Vit. Moy. Raf.3
23:00 7.9 6.7 -2.6 NE 7.4 7.4 9.3 47 1022.7(0.6/3h) >70 -- -- --
22:00 9.4 8.4 -2.9 N 7.4 7.4 9.3 42 1022.1(0.8/3h) >70 -- -- --
21:00 8.7 7.6 -2.6 N 7.4 9.3 11.1 45 1022.2(1.0/3h) >70 -- -- --
20:00 9.6 8.7 -4.0 N 7.4 7.4 9.3 38 1021.7(1.2/3h) >70 -- -- --
19:00 11.0 10.3 -4.6 N 7.4 9.3 11.1 33 1020.9(0.8/3h) >70 -- -- --
18:00 14.1 13.9 -5.2 N 7.4 9.3 13.0 26 1019.9(0.7/3h) >70 -- 0/12h
--
17:00 15.5 15.5 -5.3 N 7.4 9.3 13.0 23 1019.1(0.3/3h) >70 -- -- --
16:00 16.3 16.2 -3.4 NNO 9.3 9.3 13.0 26 1018.8(0.0/3h) >70 -- -- --
15:00 16.5 16.5 -0.7 NNO 7.4 9.3 13.0 31 1018.5(-0.4/3h) >70 -- -- --
14:00 17.7 17.7 1.0 NNO 5.6 7.4 13.0 32 1018.3(-0.6/3h) >70 -- -- --
13:00 17.5 17.5 -7.6 NO 5.6 7.4 11.1 17 1018.6(-0.5/3h) >70 -- -- --
12:00 16.3 16.3 -2.1 NO 5.6 7.4 11.1 28 1019(-0.3/3h) >70 -- 0/6h
--
11:00 15.9 15.9 0.3 NO 5.6 5.6 9.3 35 1019.3(0.0/3h) >70 -- -- --
10:00 14.8 14.8 -1.8 N 3.7 5.6 7.4 32 1019.6(0.3/3h) >70 -- -- --
09:00 13.3 13.3 -7.7 NE 3.7 7.4 9.3 22 1020.1(0.6/3h) >70 -- -- --
08:00 11.7 11.5 -4.2 ENE 5.6 7.4 9.3 33 1020.4(0.8/3h) >70 -- -- --
07:00 10.0 9.6 1.6 NE 5.6 5.6 7.4 56 1020.4(0.7/3h) >70 -- -- --
06:00 7.1 6.3 3.2 NE 5.6 9.3 11.1 76 1020.8(-0.1/3h) 55 -- 0/12h
Ciel clair
05:00 1.2 1.2 -1.2 ENE 3.7 5.6 7.4 84 1022(-0.3/3h) 40 -- -- Ciel clair
04:00 3.6 2.3 -0.1 NE 5.6 5.6 7.4 77 1021.3(-0.7/3h) 45 -- -- --
03:00 6.4 5.5 1.5 NE 5.6 9.3 11.1 71 1020.9(-0.7/3h) 55 -- -- --
02:00 6.2 5.2 0.9 ENE 5.6 9.3 11.1 69 1021.1(-1.4/3h) 60 -- -- --
01:00 7.3 5.5 0.9 ENE 9.3 9.3 11.1 64 1021.1(-1.2/3h) >70 -- -- --
00:00 7.8 6.6 0.5 NE 7.4 9.3 11.1 60 1021.4(-0.9/3h) >70 -- 0/6h
0/24h
--

1 Coordinated Universal Time. Actuellement il est 23:00 locale et 21:00 UTC.

2 Le vent souffle depuis la direction indiquée vers la direction oposée.

3 Les rafales max. sont disponible 40 min après l'heure du relevé.

4 Pour les stations d'altitude (plus de 600m) le géopotentiel du niveau le plus proche de la pression obligatoire est indiqué.

5 Les stations disposant d'un diffuseur peuvent indiquer "trace". Cela signifie que des précipitations ont touchés le sol mais que la quantité est inférieure à 0.1 mm.

Récapitulatif de la journée
Température [°C] Vent [km/h] Ensoleillement4 [h] Precipitations totale5 [mm] Pression [Hpa]
Min1 Max.2 Moy.3 Max. Min Max.
0.0 17.9 7.9 13.0 0 h 0 min 0 1018.3 1022.7

1 Température minimale relevée entre 18:00 UTC la veille et 18:00 UTC le jour donné.

2 Température maximale relevée entre 06:00 UTC le jour donné et 06:00 UTC le lendemain.

3 Vent moyen de la journée basé sur les relevés horaires.

4 Ensoleillement en heures relevé entre 06:00 UTC la veille et 06:00 UTC le jour donné.

5 Précipitations totales tombées entre 06:00 UTC la jour donné et 06:00 UTC le lendemain.

Graphiques horaires